sensor_id;sensor_type;location;lat;lon;timestamp;P1;durP1;ratioP1;P2;durP2;ratioP2
59408;SDS011;45213;32.654;-115.458;2023-04-15T00:01:03;6.28;;;1.67;;
59408;SDS011;45213;32.654;-115.458;2023-04-15T00:03:30;6.75;;;1.77;;
59408;SDS011;45213;32.654;-115.458;2023-04-15T00:05:58;5.35;;;1.55;;
59408;SDS011;45213;32.654;-115.458;2023-04-15T00:08:26;6.18;;;1.63;;
59408;SDS011;45213;32.654;-115.458;2023-04-15T00:10:53;7.75;;;1.85;;
59408;SDS011;45213;32.654;-115.458;2023-04-15T00:13:19;6.05;;;1.80;;
59408;SDS011;45213;32.654;-115.458;2023-04-15T00:15:46;8.27;;;2.00;;
59408;SDS011;45213;32.654;-115.458;2023-04-15T00:18:13;5.53;;;1.92;;
59408;SDS011;45213;32.654;-115.458;2023-04-15T00:20:39;6.40;;;1.58;;
59408;SDS011;45213;32.654;-115.458;2023-04-15T00:23:06;5.60;;;1.88;;
59408;SDS011;45213;32.654;-115.458;2023-04-15T00:25:33;9.32;;;1.75;;
59408;SDS011;45213;32.654;-115.458;2023-04-15T00:27:59;5.97;;;1.90;;
59408;SDS011;45213;32.654;-115.458;2023-04-15T00:30:26;6.57;;;1.67;;
59408;SDS011;45213;32.654;-115.458;2023-04-15T00:32:53;4.22;;;1.48;;
59408;SDS011;45213;32.654;-115.458;2023-04-15T00:35:21;7.05;;;1.95;;
59408;SDS011;45213;32.654;-115.458;2023-04-15T00:37:49;9.10;;;1.55;;
59408;SDS011;45213;32.654;-115.458;2023-04-15T00:40:16;4.53;;;1.60;;
59408;SDS011;45213;32.654;-115.458;2023-04-15T00:42:45;7.47;;;2.08;;
59408;SDS011;45213;32.654;-115.458;2023-04-15T00:45:12;9.73;;;2.13;;
59408;SDS011;45213;32.654;-115.458;2023-04-15T00:47:40;9.50;;;2.00;;
59408;SDS011;45213;32.654;-115.458;2023-04-15T00:50:08;11.68;;;2.15;;
59408;SDS011;45213;32.654;-115.458;2023-04-15T00:52:35;6.60;;;2.10;;
59408;SDS011;45213;32.654;-115.458;2023-04-15T00:55:03;7.95;;;2.33;;
59408;SDS011;45213;32.654;-115.458;2023-04-15T00:57:30;5.50;;;1.83;;
59408;SDS011;45213;32.654;-115.458;2023-04-15T00:59:57;7.63;;;2.28;;
59408;SDS011;45213;32.654;-115.458;2023-04-15T01:02:25;9.15;;;1.95;;
59408;SDS011;45213;32.654;-115.458;2023-04-15T01:04:52;7.40;;;1.90;;
59408;SDS011;45213;32.654;-115.458;2023-04-15T01:07:19;8.32;;;2.40;;
59408;SDS011;45213;32.654;-115.458;2023-04-15T01:09:46;8.10;;;2.13;;
59408;SDS011;45213;32.654;-115.458;2023-04-15T01:12:13;5.65;;;1.58;;
59408;SDS011;45213;32.654;-115.458;2023-04-15T01:14:42;5.45;;;2.10;;
59408;SDS011;45213;32.654;-115.458;2023-04-15T01:17:10;10.07;;;2.20;;
59408;SDS011;45213;32.654;-115.458;2023-04-15T01:19:38;6.95;;;1.77;;
59408;SDS011;45213;32.654;-115.458;2023-04-15T01:22:06;8.35;;;2.13;;
59408;SDS011;45213;32.654;-115.458;2023-04-15T01:24:37;8.88;;;1.90;;
59408;SDS011;45213;32.654;-115.458;2023-04-15T01:27:04;6.35;;;1.90;;
59408;SDS011;45213;32.654;-115.458;2023-04-15T01:29:31;5.60;;;2.10;;
59408;SDS011;45213;32.654;-115.458;2023-04-15T01:32:01;5.38;;;2.25;;
59408;SDS011;45213;32.654;-115.458;2023-04-15T01:34:28;10.50;;;2.38;;
59408;SDS011;45213;32.654;-115.458;2023-04-15T01:36:55;6.18;;;2.03;;
59408;SDS011;45213;32.654;-115.458;2023-04-15T01:39:22;15.20;;;2.63;;
59408;SDS011;45213;32.654;-115.458;2023-04-15T01:41:48;9.13;;;1.98;;
59408;SDS011;45213;32.654;-115.458;2023-04-15T01:44:15;8.88;;;2.33;;
59408;SDS011;45213;32.654;-115.458;2023-04-15T01:46:42;6.13;;;2.15;;
59408;SDS011;45213;32.654;-115.458;2023-04-15T01:49:08;4.82;;;1.85;;
59408;SDS011;45213;32.654;-115.458;2023-04-15T01:51:35;9.48;;;2.30;;
59408;SDS011;45213;32.654;-115.458;2023-04-15T01:54:01;15.23;;;2.70;;
59408;SDS011;45213;32.654;-115.458;2023-04-15T01:56:29;10.23;;;2.35;;
59408;SDS011;45213;32.654;-115.458;2023-04-15T01:58:55;5.85;;;2.15;;
59408;SDS011;45213;32.654;-115.458;2023-04-15T02:01:22;7.20;;;2.33;;
59408;SDS011;45213;32.654;-115.458;2023-04-15T02:03:48;10.32;;;1.90;;
59408;SDS011;45213;32.654;-115.458;2023-04-15T02:06:15;12.07;;;2.10;;
59408;SDS011;45213;32.654;-115.458;2023-04-15T02:08:43;8.10;;;2.38;;
59408;SDS011;45213;32.654;-115.458;2023-04-15T02:11:09;9.90;;;2.42;;
59408;SDS011;45213;32.654;-115.458;2023-04-15T02:13:36;7.88;;;2.67;;
59408;SDS011;45213;32.654;-115.458;2023-04-15T02:16:03;9.48;;;2.60;;
59408;SDS011;45213;32.654;-115.458;2023-04-15T02:18:29;5.55;;;2.22;;
59408;SDS011;45213;32.654;-115.458;2023-04-15T02:20:56;13.27;;;3.17;;
59408;SDS011;45213;32.654;-115.458;2023-04-15T02:23:23;15.68;;;3.33;;
59408;SDS011;45213;32.654;-115.458;2023-04-15T02:25:50;13.30;;;3.35;;
59408;SDS011;45213;32.654;-115.458;2023-04-15T02:28:16;11.32;;;2.85;;
59408;SDS011;45213;32.654;-115.458;2023-04-15T02:30:46;11.00;;;2.80;;
59408;SDS011;45213;32.654;-115.458;2023-04-15T02:33:15;11.00;;;2.60;;
59408;SDS011;45213;32.654;-115.458;2023-04-15T02:35:42;11.45;;;2.72;;
59408;SDS011;45213;32.654;-115.458;2023-04-15T02:38:10;15.77;;;3.78;;
59408;SDS011;45213;32.654;-115.458;2023-04-15T02:40:37;15.68;;;4.15;;
59408;SDS011;45213;32.654;-115.458;2023-04-15T02:43:05;8.32;;;3.15;;
59408;SDS011;45213;32.654;-115.458;2023-04-15T02:45:33;7.95;;;2.63;;
59408;SDS011;45213;32.654;-115.458;2023-04-15T02:48:01;9.10;;;2.60;;
59408;SDS011;45213;32.654;-115.458;2023-04-15T02:50:30;13.07;;;2.88;;
59408;SDS011;45213;32.654;-115.458;2023-04-15T02:52:57;13.10;;;2.65;;
59408;SDS011;45213;32.654;-115.458;2023-04-15T02:55:25;12.20;;;3.22;;
59408;SDS011;45213;32.654;-115.458;2023-04-15T02:57:52;8.05;;;2.45;;
59408;SDS011;45213;32.654;-115.458;2023-04-15T03:00:19;8.27;;;3.42;;
59408;SDS011;45213;32.654;-115.458;2023-04-15T03:02:47;11.70;;;2.80;;
59408;SDS011;45213;32.654;-115.458;2023-04-15T03:05:16;8.57;;;3.10;;
59408;SDS011;45213;32.654;-115.458;2023-04-15T03:07:48;13.88;;;3.28;;
59408;SDS011;45213;32.654;-115.458;2023-04-15T03:10:16;15.50;;;3.72;;
59408;SDS011;45213;32.654;-115.458;2023-04-15T03:12:44;12.25;;;3.35;;
59408;SDS011;45213;32.654;-115.458;2023-04-15T03:17:46;11.25;;;3.28;;
59408;SDS011;45213;32.654;-115.458;2023-04-15T03:20:14;13.07;;;3.40;;
59408;SDS011;45213;32.654;-115.458;2023-04-15T03:22:40;16.10;;;4.00;;
59408;SDS011;45213;32.654;-115.458;2023-04-15T03:25:07;14.10;;;3.75;;
59408;SDS011;45213;32.654;-115.458;2023-04-15T03:27:36;10.60;;;3.15;;
59408;SDS011;45213;32.654;-115.458;2023-04-15T03:30:04;9.27;;;3.50;;
59408;SDS011;45213;32.654;-115.458;2023-04-15T03:32:35;11.00;;;3.60;;
59408;SDS011;45213;32.654;-115.458;2023-04-15T03:35:01;9.85;;;3.63;;
59408;SDS011;45213;32.654;-115.458;2023-04-15T03:37:28;11.77;;;4.25;;
59408;SDS011;45213;32.654;-115.458;2023-04-15T03:39:54;16.52;;;4.20;;
59408;SDS011;45213;32.654;-115.458;2023-04-15T03:42:21;20.27;;;4.88;;
59408;SDS011;45213;32.654;-115.458;2023-04-15T03:44:47;11.00;;;4.65;;
59408;SDS011;45213;32.654;-115.458;2023-04-15T03:47:14;17.58;;;4.43;;
59408;SDS011;45213;32.654;-115.458;2023-04-15T03:49:41;14.13;;;4.40;;
59408;SDS011;45213;32.654;-115.458;2023-04-15T03:52:07;14.27;;;5.10;;
59408;SDS011;45213;32.654;-115.458;2023-04-15T03:54:34;14.93;;;4.45;;
59408;SDS011;45213;32.654;-115.458;2023-04-15T03:57:00;10.80;;;3.90;;
59408;SDS011;45213;32.654;-115.458;2023-04-15T03:59:27;12.73;;;4.00;;
59408;SDS011;45213;32.654;-115.458;2023-04-15T04:01:53;14.18;;;3.65;;
59408;SDS011;45213;32.654;-115.458;2023-04-15T04:04:20;18.60;;;4.90;;
59408;SDS011;45213;32.654;-115.458;2023-04-15T04:06:47;12.75;;;4.55;;
59408;SDS011;45213;32.654;-115.458;2023-04-15T04:09:13;15.07;;;4.53;;
59408;SDS011;45213;32.654;-115.458;2023-04-15T04:11:40;12.38;;;4.50;;
59408;SDS011;45213;32.654;-115.458;2023-04-15T04:14:06;14.13;;;4.40;;
59408;SDS011;45213;32.654;-115.458;2023-04-15T04:16:33;11.80;;;4.60;;
59408;SDS011;45213;32.654;-115.458;2023-04-15T04:18:59;12.18;;;6.28;;
59408;SDS011;45213;32.654;-115.458;2023-04-15T04:21:26;15.70;;;5.93;;
59408;SDS011;45213;32.654;-115.458;2023-04-15T04:23:53;20.38;;;6.75;;
59408;SDS011;45213;32.654;-115.458;2023-04-15T04:26:19;22.83;;;7.28;;
59408;SDS011;45213;32.654;-115.458;2023-04-15T04:28:47;22.98;;;5.82;;
59408;SDS011;45213;32.654;-115.458;2023-04-15T04:31:13;16.67;;;5.45;;
59408;SDS011;45213;32.654;-115.458;2023-04-15T04:33:40;14.00;;;5.25;;
59408;SDS011;45213;32.654;-115.458;2023-04-15T04:36:07;19.98;;;4.70;;
59408;SDS011;45213;32.654;-115.458;2023-04-15T04:38:33;23.83;;;5.18;;
59408;SDS011;45213;32.654;-115.458;2023-04-15T04:41:00;13.13;;;4.18;;
59408;SDS011;45213;32.654;-115.458;2023-04-15T04:43:27;19.13;;;5.18;;
59408;SDS011;45213;32.654;-115.458;2023-04-15T04:45:53;16.23;;;4.65;;
59408;SDS011;45213;32.654;-115.458;2023-04-15T04:48:20;17.13;;;5.13;;
59408;SDS011;45213;32.654;-115.458;2023-04-15T04:50:47;15.00;;;4.97;;
59408;SDS011;45213;32.654;-115.458;2023-04-15T04:53:14;19.27;;;5.05;;
59408;SDS011;45213;32.654;-115.458;2023-04-15T04:55:40;24.70;;;5.40;;
59408;SDS011;45213;32.654;-115.458;2023-04-15T04:58:07;17.05;;;5.22;;
59408;SDS011;45213;32.654;-115.458;2023-04-15T05:00:33;24.83;;;5.85;;
59408;SDS011;45213;32.654;-115.458;2023-04-15T05:03:02;18.02;;;5.63;;
59408;SDS011;45213;32.654;-115.458;2023-04-15T05:05:29;28.15;;;6.40;;
59408;SDS011;45213;32.654;-115.458;2023-04-15T05:07:56;17.85;;;5.45;;
59408;SDS011;45213;32.654;-115.458;2023-04-15T05:10:22;17.48;;;5.25;;
59408;SDS011;45213;32.654;-115.458;2023-04-15T05:12:49;19.90;;;6.35;;
59408;SDS011;45213;32.654;-115.458;2023-04-15T05:15:16;28.23;;;6.22;;
59408;SDS011;45213;32.654;-115.458;2023-04-15T05:17:43;23.58;;;6.32;;
59408;SDS011;45213;32.654;-115.458;2023-04-15T05:20:09;21.33;;;6.38;;
59408;SDS011;45213;32.654;-115.458;2023-04-15T05:22:36;23.17;;;7.35;;
59408;SDS011;45213;32.654;-115.458;2023-04-15T05:25:03;19.77;;;6.80;;
59408;SDS011;45213;32.654;-115.458;2023-04-15T05:27:30;31.02;;;7.38;;
59408;SDS011;45213;32.654;-115.458;2023-04-15T05:29:56;22.65;;;6.55;;
59408;SDS011;45213;32.654;-115.458;2023-04-15T05:32:23;19.10;;;6.15;;
59408;SDS011;45213;32.654;-115.458;2023-04-15T05:34:50;17.17;;;6.50;;
59408;SDS011;45213;32.654;-115.458;2023-04-15T05:37:16;17.48;;;6.57;;
59408;SDS011;45213;32.654;-115.458;2023-04-15T05:39:45;20.90;;;6.75;;
59408;SDS011;45213;32.654;-115.458;2023-04-15T05:42:13;21.08;;;6.35;;
59408;SDS011;45213;32.654;-115.458;2023-04-15T05:44:39;13.48;;;5.30;;
59408;SDS011;45213;32.654;-115.458;2023-04-15T05:47:06;18.52;;;5.50;;
59408;SDS011;45213;32.654;-115.458;2023-04-15T05:49:34;10.38;;;3.55;;
59408;SDS011;45213;32.654;-115.458;2023-04-15T05:52:01;16.08;;;4.32;;
59408;SDS011;45213;32.654;-115.458;2023-04-15T05:54:28;14.77;;;3.53;;
59408;SDS011;45213;32.654;-115.458;2023-04-15T05:56:55;12.20;;;3.45;;
59408;SDS011;45213;32.654;-115.458;2023-04-15T05:59:22;14.10;;;4.05;;
59408;SDS011;45213;32.654;-115.458;2023-04-15T06:01:48;12.50;;;3.95;;
59408;SDS011;45213;32.654;-115.458;2023-04-15T06:04:16;14.40;;;3.78;;
59408;SDS011;45213;32.654;-115.458;2023-04-15T06:06:43;11.85;;;4.10;;
59408;SDS011;45213;32.654;-115.458;2023-04-15T06:09:10;15.32;;;4.05;;
59408;SDS011;45213;32.654;-115.458;2023-04-15T06:11:36;15.50;;;4.07;;
59408;SDS011;45213;32.654;-115.458;2023-04-15T06:14:03;11.18;;;3.65;;
59408;SDS011;45213;32.654;-115.458;2023-04-15T06:16:29;9.57;;;3.97;;
59408;SDS011;45213;32.654;-115.458;2023-04-15T06:18:56;11.38;;;3.22;;
59408;SDS011;45213;32.654;-115.458;2023-04-15T06:21:23;19.77;;;4.57;;
59408;SDS011;45213;32.654;-115.458;2023-04-15T06:23:50;12.75;;;3.20;;
59408;SDS011;45213;32.654;-115.458;2023-04-15T06:26:16;12.82;;;3.17;;
59408;SDS011;45213;32.654;-115.458;2023-04-15T06:28:43;13.93;;;3.88;;
59408;SDS011;45213;32.654;-115.458;2023-04-15T06:31:10;11.48;;;3.42;;
59408;SDS011;45213;32.654;-115.458;2023-04-15T06:33:36;15.05;;;3.78;;
59408;SDS011;45213;32.654;-115.458;2023-04-15T06:36:04;8.27;;;2.83;;
59408;SDS011;45213;32.654;-115.458;2023-04-15T06:38:30;13.35;;;3.30;;
59408;SDS011;45213;32.654;-115.458;2023-04-15T06:40:57;8.50;;;3.22;;
59408;SDS011;45213;32.654;-115.458;2023-04-15T06:43:24;13.48;;;3.65;;
59408;SDS011;45213;32.654;-115.458;2023-04-15T06:45:50;12.35;;;3.40;;
59408;SDS011;45213;32.654;-115.458;2023-04-15T06:48:17;10.00;;;3.65;;
59408;SDS011;45213;32.654;-115.458;2023-04-15T06:50:44;11.93;;;4.50;;
59408;SDS011;45213;32.654;-115.458;2023-04-15T06:53:10;12.00;;;3.47;;
59408;SDS011;45213;32.654;-115.458;2023-04-15T06:55:37;12.65;;;3.42;;
59408;SDS011;45213;32.654;-115.458;2023-04-15T06:58:04;15.48;;;4.13;;
59408;SDS011;45213;32.654;-115.458;2023-04-15T07:00:31;14.43;;;3.63;;
59408;SDS011;45213;32.654;-115.458;2023-04-15T07:02:59;10.07;;;3.17;;
59408;SDS011;45213;32.654;-115.458;2023-04-15T07:05:28;11.65;;;4.00;;
59408;SDS011;45213;32.654;-115.458;2023-04-15T07:07:55;11.63;;;4.15;;
59408;SDS011;45213;32.654;-115.458;2023-04-15T07:10:22;11.23;;;3.78;;
59408;SDS011;45213;32.654;-115.458;2023-04-15T07:12:48;13.23;;;4.13;;
59408;SDS011;45213;32.654;-115.458;2023-04-15T07:15:15;11.57;;;3.63;;
59408;SDS011;45213;32.654;-115.458;2023-04-15T07:17:42;11.90;;;4.18;;
59408;SDS011;45213;32.654;-115.458;2023-04-15T07:20:09;18.45;;;4.10;;
59408;SDS011;45213;32.654;-115.458;2023-04-15T07:22:35;12.77;;;3.88;;
59408;SDS011;45213;32.654;-115.458;2023-04-15T07:25:02;12.50;;;4.03;;
59408;SDS011;45213;32.654;-115.458;2023-04-15T07:27:29;14.27;;;4.38;;
59408;SDS011;45213;32.654;-115.458;2023-04-15T07:29:56;14.70;;;4.47;;
59408;SDS011;45213;32.654;-115.458;2023-04-15T07:32:23;17.20;;;4.30;;
59408;SDS011;45213;32.654;-115.458;2023-04-15T07:34:49;11.27;;;4.35;;
59408;SDS011;45213;32.654;-115.458;2023-04-15T07:37:16;11.27;;;4.25;;
59408;SDS011;45213;32.654;-115.458;2023-04-15T07:39:43;11.65;;;3.75;;
59408;SDS011;45213;32.654;-115.458;2023-04-15T07:42:10;13.07;;;3.80;;
59408;SDS011;45213;32.654;-115.458;2023-04-15T07:44:36;12.38;;;3.97;;
59408;SDS011;45213;32.654;-115.458;2023-04-15T07:47:03;9.77;;;3.60;;
59408;SDS011;45213;32.654;-115.458;2023-04-15T07:49:29;12.45;;;3.75;;
59408;SDS011;45213;32.654;-115.458;2023-04-15T07:51:56;12.43;;;4.00;;
59408;SDS011;45213;32.654;-115.458;2023-04-15T07:54:24;20.75;;;4.22;;
59408;SDS011;45213;32.654;-115.458;2023-04-15T07:56:52;11.77;;;3.40;;
59408;SDS011;45213;32.654;-115.458;2023-04-15T07:59:18;13.93;;;3.72;;
59408;SDS011;45213;32.654;-115.458;2023-04-15T08:01:46;14.18;;;3.92;;
59408;SDS011;45213;32.654;-115.458;2023-04-15T08:04:12;12.90;;;3.85;;
59408;SDS011;45213;32.654;-115.458;2023-04-15T08:06:39;14.93;;;3.85;;
59408;SDS011;45213;32.654;-115.458;2023-04-15T08:09:06;9.65;;;3.53;;
59408;SDS011;45213;32.654;-115.458;2023-04-15T08:11:32;11.57;;;3.60;;
59408;SDS011;45213;32.654;-115.458;2023-04-15T08:13:59;13.07;;;3.83;;
59408;SDS011;45213;32.654;-115.458;2023-04-15T08:16:26;21.10;;;3.90;;
59408;SDS011;45213;32.654;-115.458;2023-04-15T08:18:54;10.77;;;3.70;;
59408;SDS011;45213;32.654;-115.458;2023-04-15T08:21:21;14.35;;;4.05;;
59408;SDS011;45213;32.654;-115.458;2023-04-15T08:23:49;8.80;;;3.30;;
59408;SDS011;45213;32.654;-115.458;2023-04-15T08:26:16;12.75;;;3.80;;
59408;SDS011;45213;32.654;-115.458;2023-04-15T08:28:44;12.13;;;3.88;;
59408;SDS011;45213;32.654;-115.458;2023-04-15T08:31:11;10.93;;;3.55;;
59408;SDS011;45213;32.654;-115.458;2023-04-15T08:33:39;9.30;;;3.88;;
59408;SDS011;45213;32.654;-115.458;2023-04-15T08:36:06;9.30;;;3.42;;
59408;SDS011;45213;32.654;-115.458;2023-04-15T08:38:33;10.05;;;2.85;;
59408;SDS011;45213;32.654;-115.458;2023-04-15T08:41:06;15.48;;;4.05;;
59408;SDS011;45213;32.654;-115.458;2023-04-15T08:43:41;10.23;;;3.72;;
59408;SDS011;45213;32.654;-115.458;2023-04-15T08:46:13;16.25;;;3.92;;
59408;SDS011;45213;32.654;-115.458;2023-04-15T08:48:41;12.15;;;3.45;;
59408;SDS011;45213;32.654;-115.458;2023-04-15T08:51:08;15.45;;;3.70;;
59408;SDS011;45213;32.654;-115.458;2023-04-15T08:53:35;13.00;;;3.65;;
59408;SDS011;45213;32.654;-115.458;2023-04-15T08:56:03;11.15;;;3.33;;
59408;SDS011;45213;32.654;-115.458;2023-04-15T08:58:33;17.70;;;4.32;;
59408;SDS011;45213;32.654;-115.458;2023-04-15T09:01:01;14.57;;;3.75;;
59408;SDS011;45213;32.654;-115.458;2023-04-15T09:03:28;11.02;;;3.15;;
59408;SDS011;45213;32.654;-115.458;2023-04-15T09:05:55;9.80;;;3.85;;
59408;SDS011;45213;32.654;-115.458;2023-04-15T09:08:23;15.88;;;4.38;;
59408;SDS011;45213;32.654;-115.458;2023-04-15T09:10:49;19.80;;;4.82;;
59408;SDS011;45213;32.654;-115.458;2023-04-15T09:13:17;13.93;;;4.43;;
59408;SDS011;45213;32.654;-115.458;2023-04-15T09:15:43;8.57;;;3.45;;
59408;SDS011;45213;32.654;-115.458;2023-04-15T09:18:11;11.35;;;3.80;;
59408;SDS011;45213;32.654;-115.458;2023-04-15T09:20:40;12.55;;;3.95;;
59408;SDS011;45213;32.654;-115.458;2023-04-15T09:23:13;12.90;;;4.50;;
59408;SDS011;45213;32.654;-115.458;2023-04-15T09:25:42;17.42;;;4.60;;
59408;SDS011;45213;32.654;-115.458;2023-04-15T09:28:08;17.63;;;4.85;;
59408;SDS011;45213;32.654;-115.458;2023-04-15T09:30:36;18.02;;;5.32;;
59408;SDS011;45213;32.654;-115.458;2023-04-15T09:33:03;21.55;;;4.68;;
59408;SDS011;45213;32.654;-115.458;2023-04-15T09:35:33;17.85;;;4.97;;
59408;SDS011;45213;32.654;-115.458;2023-04-15T09:38:07;18.95;;;5.05;;
59408;SDS011;45213;32.654;-115.458;2023-04-15T09:40:38;15.27;;;4.65;;
59408;SDS011;45213;32.654;-115.458;2023-04-15T09:45:35;13.73;;;4.47;;
59408;SDS011;45213;32.654;-115.458;2023-04-15T09:50:50;16.83;;;4.90;;
59408;SDS011;45213;32.654;-115.458;2023-04-15T09:53:18;16.13;;;4.40;;
59408;SDS011;45213;32.654;-115.458;2023-04-15T09:55:53;19.10;;;5.05;;
59408;SDS011;45213;32.654;-115.458;2023-04-15T09:58:22;17.90;;;4.65;;
59408;SDS011;45213;32.654;-115.458;2023-04-15T10:00:50;12.30;;;5.53;;
59408;SDS011;45213;32.654;-115.458;2023-04-15T10:03:24;17.95;;;5.22;;
59408;SDS011;45213;32.654;-115.458;2023-04-15T10:05:56;19.65;;;5.40;;
59408;SDS011;45213;32.654;-115.458;2023-04-15T10:08:27;14.80;;;4.80;;
59408;SDS011;45213;32.654;-115.458;2023-04-15T10:10:56;16.50;;;4.78;;
59408;SDS011;45213;32.654;-115.458;2023-04-15T10:13:24;12.60;;;4.53;;
59408;SDS011;45213;32.654;-115.458;2023-04-15T10:16:12;16.13;;;4.72;;
59408;SDS011;45213;32.654;-115.458;2023-04-15T10:18:45;14.63;;;4.65;;
59408;SDS011;45213;32.654;-115.458;2023-04-15T10:21:14;29.98;;;5.45;;
59408;SDS011;45213;32.654;-115.458;2023-04-15T10:23:46;25.25;;;4.90;;
59408;SDS011;45213;32.654;-115.458;2023-04-15T10:26:13;16.67;;;4.68;;
59408;SDS011;45213;32.654;-115.458;2023-04-15T10:28:44;17.95;;;5.38;;
59408;SDS011;45213;32.654;-115.458;2023-04-15T10:31:14;13.85;;;4.57;;
59408;SDS011;45213;32.654;-115.458;2023-04-15T10:33:43;15.57;;;5.20;;
59408;SDS011;45213;32.654;-115.458;2023-04-15T10:36:12;13.30;;;5.22;;
59408;SDS011;45213;32.654;-115.458;2023-04-15T10:38:39;12.88;;;5.45;;
59408;SDS011;45213;32.654;-115.458;2023-04-15T10:41:14;17.08;;;5.55;;
59408;SDS011;45213;32.654;-115.458;2023-04-15T10:46:21;11.57;;;5.25;;
59408;SDS011;45213;32.654;-115.458;2023-04-15T10:48:49;16.55;;;6.13;;
59408;SDS011;45213;32.654;-115.458;2023-04-15T10:51:27;16.45;;;5.75;;
59408;SDS011;45213;32.654;-115.458;2023-04-15T10:53:56;13.07;;;5.00;;
59408;SDS011;45213;32.654;-115.458;2023-04-15T10:56:24;17.70;;;6.28;;
59408;SDS011;45213;32.654;-115.458;2023-04-15T10:58:55;15.82;;;6.50;;
59408;SDS011;45213;32.654;-115.458;2023-04-15T11:01:48;17.67;;;5.57;;
59408;SDS011;45213;32.654;-115.458;2023-04-15T11:05:05;19.60;;;5.93;;
59408;SDS011;45213;32.654;-115.458;2023-04-15T11:07:34;17.15;;;5.45;;
59408;SDS011;45213;32.654;-115.458;2023-04-15T11:12:57;11.85;;;5.78;;
59408;SDS011;45213;32.654;-115.458;2023-04-15T11:15:29;21.45;;;6.28;;
59408;SDS011;45213;32.654;-115.458;2023-04-15T11:17:56;17.90;;;6.43;;
59408;SDS011;45213;32.654;-115.458;2023-04-15T11:20:23;14.75;;;5.28;;
59408;SDS011;45213;32.654;-115.458;2023-04-15T11:22:52;22.45;;;6.00;;
59408;SDS011;45213;32.654;-115.458;2023-04-15T11:25:23;15.85;;;6.65;;
59408;SDS011;45213;32.654;-115.458;2023-04-15T11:27:54;14.15;;;5.60;;
59408;SDS011;45213;32.654;-115.458;2023-04-15T11:30:22;19.65;;;6.30;;
59408;SDS011;45213;32.654;-115.458;2023-04-15T11:32:51;21.52;;;6.38;;
59408;SDS011;45213;32.654;-115.458;2023-04-15T11:35:19;15.55;;;5.35;;
59408;SDS011;45213;32.654;-115.458;2023-04-15T11:37:47;14.98;;;5.95;;
59408;SDS011;45213;32.654;-115.458;2023-04-15T11:40:24;15.18;;;6.40;;
59408;SDS011;45213;32.654;-115.458;2023-04-15T11:43:05;17.92;;;5.65;;
59408;SDS011;45213;32.654;-115.458;2023-04-15T11:48:20;14.20;;;6.07;;
59408;SDS011;45213;32.654;-115.458;2023-04-15T11:50:55;13.95;;;5.40;;
59408;SDS011;45213;32.654;-115.458;2023-04-15T11:53:23;17.02;;;6.28;;
59408;SDS011;45213;32.654;-115.458;2023-04-15T11:56:01;15.23;;;6.10;;
59408;SDS011;45213;32.654;-115.458;2023-04-15T11:58:28;16.50;;;5.88;;
59408;SDS011;45213;32.654;-115.458;2023-04-15T12:00:58;16.85;;;6.28;;
59408;SDS011;45213;32.654;-115.458;2023-04-15T12:06:12;16.63;;;5.82;;
59408;SDS011;45213;32.654;-115.458;2023-04-15T12:08:50;17.13;;;6.25;;
59408;SDS011;45213;32.654;-115.458;2023-04-15T12:14:05;16.30;;;6.97;;
59408;SDS011;45213;32.654;-115.458;2023-04-15T12:16:43;19.08;;;7.03;;
59408;SDS011;45213;32.654;-115.458;2023-04-15T12:19:12;21.55;;;7.88;;
59408;SDS011;45213;32.654;-115.458;2023-04-15T12:21:41;23.35;;;8.57;;
59408;SDS011;45213;32.654;-115.458;2023-04-15T12:24:10;25.95;;;8.95;;
59408;SDS011;45213;32.654;-115.458;2023-04-15T12:26:44;24.13;;;9.35;;
59408;SDS011;45213;32.654;-115.458;2023-04-15T12:29:16;23.08;;;9.85;;
59408;SDS011;45213;32.654;-115.458;2023-04-15T12:31:49;24.63;;;9.38;;
59408;SDS011;45213;32.654;-115.458;2023-04-15T12:34:17;23.50;;;9.82;;
59408;SDS011;45213;32.654;-115.458;2023-04-15T12:36:51;20.35;;;9.27;;
59408;SDS011;45213;32.654;-115.458;2023-04-15T12:39:22;23.38;;;9.75;;
59408;SDS011;45213;32.654;-115.458;2023-04-15T12:41:50;25.00;;;10.15;;
59408;SDS011;45213;32.654;-115.458;2023-04-15T12:44:17;24.73;;;10.20;;
59408;SDS011;45213;32.654;-115.458;2023-04-15T12:46:44;21.55;;;9.63;;
59408;SDS011;45213;32.654;-115.458;2023-04-15T12:49:11;19.08;;;9.20;;
59408;SDS011;45213;32.654;-115.458;2023-04-15T12:51:39;26.40;;;9.02;;
59408;SDS011;45213;32.654;-115.458;2023-04-15T12:54:06;25.67;;;9.75;;
59408;SDS011;45213;32.654;-115.458;2023-04-15T12:56:32;22.55;;;11.25;;
59408;SDS011;45213;32.654;-115.458;2023-04-15T12:58:59;21.50;;;9.85;;
59408;SDS011;45213;32.654;-115.458;2023-04-15T13:01:26;25.48;;;9.77;;
59408;SDS011;45213;32.654;-115.458;2023-04-15T13:03:52;19.48;;;9.00;;
59408;SDS011;45213;32.654;-115.458;2023-04-15T13:06:19;27.40;;;10.40;;
59408;SDS011;45213;32.654;-115.458;2023-04-15T13:08:46;24.15;;;9.07;;
59408;SDS011;45213;32.654;-115.458;2023-04-15T13:11:12;23.45;;;8.68;;
59408;SDS011;45213;32.654;-115.458;2023-04-15T13:13:39;22.50;;;10.05;;
59408;SDS011;45213;32.654;-115.458;2023-04-15T13:16:06;28.80;;;9.60;;
59408;SDS011;45213;32.654;-115.458;2023-04-15T13:18:32;22.75;;;9.60;;
59408;SDS011;45213;32.654;-115.458;2023-04-15T13:20:59;28.40;;;9.90;;
59408;SDS011;45213;32.654;-115.458;2023-04-15T13:23:26;24.58;;;10.38;;
59408;SDS011;45213;32.654;-115.458;2023-04-15T13:25:52;29.58;;;10.25;;
59408;SDS011;45213;32.654;-115.458;2023-04-15T13:28:19;27.02;;;9.50;;
59408;SDS011;45213;32.654;-115.458;2023-04-15T13:30:46;27.55;;;9.80;;
59408;SDS011;45213;32.654;-115.458;2023-04-15T13:33:13;28.10;;;10.82;;
59408;SDS011;45213;32.654;-115.458;2023-04-15T13:35:41;26.05;;;10.45;;
59408;SDS011;45213;32.654;-115.458;2023-04-15T13:38:07;28.58;;;12.60;;
59408;SDS011;45213;32.654;-115.458;2023-04-15T13:40:34;31.42;;;11.60;;
59408;SDS011;45213;32.654;-115.458;2023-04-15T13:43:01;31.92;;;11.57;;
59408;SDS011;45213;32.654;-115.458;2023-04-15T13:45:28;33.08;;;11.85;;
59408;SDS011;45213;32.654;-115.458;2023-04-15T13:47:55;30.13;;;12.32;;
59408;SDS011;45213;32.654;-115.458;2023-04-15T13:50:22;30.30;;;12.50;;
59408;SDS011;45213;32.654;-115.458;2023-04-15T13:52:48;34.75;;;11.95;;
59408;SDS011;45213;32.654;-115.458;2023-04-15T13:55:15;27.15;;;11.40;;
59408;SDS011;45213;32.654;-115.458;2023-04-15T13:57:42;29.60;;;12.73;;
59408;SDS011;45213;32.654;-115.458;2023-04-15T14:00:09;40.15;;;13.35;;
59408;SDS011;45213;32.654;-115.458;2023-04-15T14:02:36;29.75;;;12.90;;
59408;SDS011;45213;32.654;-115.458;2023-04-15T14:05:02;32.42;;;13.02;;
59408;SDS011;45213;32.654;-115.458;2023-04-15T14:07:29;36.40;;;13.10;;
59408;SDS011;45213;32.654;-115.458;2023-04-15T14:09:56;31.25;;;12.93;;
59408;SDS011;45213;32.654;-115.458;2023-04-15T14:12:22;30.42;;;13.75;;
59408;SDS011;45213;32.654;-115.458;2023-04-15T14:14:49;37.75;;;14.45;;
59408;SDS011;45213;32.654;-115.458;2023-04-15T14:17:16;33.90;;;14.57;;
59408;SDS011;45213;32.654;-115.458;2023-04-15T14:19:42;41.63;;;14.75;;
59408;SDS011;45213;32.654;-115.458;2023-04-15T14:22:09;34.50;;;12.80;;
59408;SDS011;45213;32.654;-115.458;2023-04-15T14:24:35;44.83;;;14.95;;